createdAt,value
2023-03-24T10:19:05.570Z,9.30
2023-03-24T10:21:36.262Z,9.10
2023-03-24T10:24:38.436Z,9.00
2023-03-24T10:27:25.108Z,9.00
2023-03-24T10:29:57.544Z,9.10
2023-03-24T10:32:30.499Z,9.10
2023-03-24T10:35:09.393Z,9.00
2023-03-24T10:37:37.251Z,9.00
2023-03-24T10:40:16.515Z,9.10
2023-03-24T10:42:45.436Z,9.20
2023-03-24T10:45:17.213Z,9.10
2023-03-24T10:47:44.747Z,9.50
2023-03-24T10:50:15.228Z,9.30
2023-03-24T10:52:48.981Z,9.50
2023-03-24T10:55:19.199Z,9.50
2023-03-24T10:57:53.849Z,9.40
2023-03-24T11:00:32.365Z,9.50
2023-03-24T11:03:12.022Z,9.60
2023-03-24T11:05:41.153Z,9.50
2023-03-24T11:08:17.623Z,9.20
2023-03-24T11:10:44.861Z,9.20
2023-03-24T11:13:21.280Z,9.30
2023-03-24T11:16:06.387Z,9.20
2023-03-24T11:18:33.724Z,9.60
2023-03-24T11:21:04.523Z,9.80
2023-03-24T11:23:34.273Z,10.40
2023-03-24T11:26:13.397Z,12.30
2023-03-24T11:28:42.111Z,12.90
2023-03-24T11:31:12.151Z,10.90
2023-03-24T11:34:10.426Z,10.50
2023-03-24T11:36:47.999Z,12.10
2023-03-24T11:39:41.697Z,12.00
2023-03-24T11:42:12.534Z,11.00
2023-03-24T11:44:39.518Z,10.20
2023-03-24T11:47:12.057Z,10.10
2023-03-24T11:50:00.669Z,10.60
2023-03-24T11:52:35.039Z,10.80
2023-03-24T11:55:03.022Z,10.50
2023-03-24T11:57:57.564Z,10.50
2023-03-24T12:00:29.490Z,10.50
2023-03-24T12:03:29.407Z,10.90
2023-03-24T12:06:25.843Z,10.50
2023-03-24T12:09:13.221Z,10.60
2023-03-24T12:11:55.449Z,12.00
2023-03-24T12:14:41.119Z,11.80
2023-03-24T12:17:16.605Z,11.70
2023-03-24T12:19:49.675Z,10.70
2023-03-24T12:22:41.570Z,10.50
2023-03-24T12:25:35.870Z,10.40
2023-03-24T12:28:11.730Z,10.20
2023-03-24T12:30:57.969Z,10.10
2023-03-24T12:33:38.454Z,10.00
2023-03-24T12:36:21.250Z,10.20
2023-03-24T12:39:11.686Z,10.30
2023-03-24T12:41:53.171Z,10.40
2023-03-24T12:44:58.616Z,10.50
2023-03-24T12:47:57.621Z,10.10
2023-03-24T12:50:27.450Z,10.80
2023-03-24T12:53:11.007Z,11.80
2023-03-24T12:55:39.784Z,12.30
2023-03-24T12:58:25.499Z,14.50
2023-03-24T13:00:58.303Z,11.90
2023-03-24T13:03:39.401Z,11.70
2023-03-24T13:06:50.481Z,11.40
2023-03-24T13:09:24.885Z,10.70
2023-03-24T13:12:03.694Z,10.50
2023-03-24T13:14:46.867Z,10.60
2023-03-24T13:17:22.297Z,10.30
2023-03-24T13:19:52.044Z,10.30
2023-03-24T13:22:21.114Z,10.60
2023-03-24T13:24:49.098Z,10.60
2023-03-24T13:27:25.032Z,10.60
2023-03-24T13:30:12.367Z,10.70
2023-03-24T13:32:58.801Z,11.70
2023-03-24T13:35:43.781Z,12.70
2023-03-24T13:38:35.711Z,13.30
2023-03-24T13:41:06.240Z,13.10
2023-03-24T13:43:34.634Z,11.70
2023-03-24T13:46:13.892Z,13.90
2023-03-24T13:48:52.594Z,13.50
2023-03-24T13:51:33.054Z,13.30
2023-03-24T13:54:26.901Z,13.20
2023-03-24T13:57:07.766Z,13.90
2023-03-24T13:59:34.740Z,11.60
2023-03-24T14:02:11.507Z,10.60
2023-03-24T14:05:05.590Z,10.80
2023-03-24T14:07:41.761Z,10.50
2023-03-24T14:10:14.630Z,10.70
2023-03-24T14:13:00.541Z,10.90
2023-03-24T14:15:46.714Z,10.60
2023-03-24T14:18:37.884Z,10.60
2023-03-24T14:21:07.423Z,10.60
2023-03-24T14:23:46.917Z,10.50
2023-03-24T14:26:35.037Z,10.80
2023-03-24T14:29:02.182Z,10.20
2023-03-24T14:31:31.879Z,10.30
2023-03-24T14:34:14.187Z,10.30
2023-03-24T14:36:45.637Z,10.30
2023-03-24T14:39:23.928Z,10.20
2023-03-24T14:41:52.762Z,10.30
2023-03-24T14:44:44.925Z,10.20
2023-03-24T14:47:15.542Z,10.20
2023-03-24T14:49:46.246Z,10.30
2023-03-24T14:52:26.926Z,10.20
2023-03-24T14:55:00.483Z,10.20
2023-03-24T14:57:30.744Z,10.10
2023-03-24T15:00:12.317Z,10.20
2023-03-24T15:02:54.447Z,10.30
2023-03-24T15:05:31.293Z,10.20
2023-03-24T15:08:22.382Z,10.10
2023-03-24T15:11:07.980Z,10.20
2023-03-24T15:13:45.836Z,10.10
2023-03-24T15:16:12.969Z,10.00
2023-03-24T15:19:04.691Z,10.00
2023-03-24T15:22:04.359Z,9.90
2023-03-24T15:24:37.100Z,9.90
2023-03-24T15:27:07.015Z,9.90
2023-03-24T15:29:39.644Z,10.00
2023-03-24T15:32:15.512Z,10.00
2023-03-24T15:34:46.887Z,10.00
2023-03-24T15:37:40.083Z,9.90
2023-03-24T15:40:31.742Z,9.80
2023-03-24T15:43:10.130Z,9.90
2023-03-24T15:46:01.055Z,9.80
2023-03-24T15:48:35.395Z,9.80
2023-03-24T15:51:06.361Z,9.80
2023-03-24T15:53:44.656Z,9.80
2023-03-24T15:56:27.020Z,9.80
2023-03-24T15:58:57.657Z,9.80
2023-03-24T16:01:36.290Z,9.80
2023-03-24T16:04:13.380Z,9.80
2023-03-24T16:06:48.529Z,9.70
2023-03-24T16:09:21.821Z,9.80
2023-03-24T16:11:49.384Z,9.70
2023-03-24T16:14:25.849Z,9.60
2023-03-24T16:17:02.325Z,9.70
2023-03-24T16:19:29.805Z,9.60
2023-03-24T16:21:57.956Z,9.60
2023-03-24T16:24:25.191Z,9.60
2023-03-24T16:26:52.223Z,9.50
2023-03-24T16:29:22.210Z,9.70
2023-03-24T16:31:51.793Z,9.60
2023-03-24T16:34:21.009Z,9.60
2023-03-24T16:36:53.188Z,9.60
2023-03-24T16:39:28.936Z,9.60
2023-03-24T16:41:56.927Z,9.50
2023-03-24T16:44:24.717Z,9.50
2023-03-24T16:46:53.970Z,9.50
2023-03-24T16:49:22.529Z,9.40
2023-03-24T16:51:51.091Z,9.40
2023-03-24T16:54:18.141Z,9.40
2023-03-24T16:56:45.531Z,9.50
2023-03-24T16:59:15.228Z,9.40
2023-03-24T17:01:46.208Z,9.40
2023-03-24T17:04:17.060Z,9.40
2023-03-24T17:06:52.868Z,9.20
2023-03-24T17:09:21.075Z,9.30
2023-03-24T17:11:53.582Z,9.30
2023-03-24T17:14:20.666Z,9.20
2023-03-24T17:16:49.802Z,9.30
2023-03-24T17:19:19.630Z,9.50
2023-03-24T17:22:02.258Z,9.40
2023-03-24T17:24:35.957Z,9.30
2023-03-24T17:27:03.669Z,9.30
2023-03-24T17:29:31.823Z,9.20
2023-03-24T17:31:59.156Z,9.20
2023-03-24T17:34:26.184Z,9.10
2023-03-24T17:36:53.289Z,9.20
2023-03-24T17:39:21.686Z,9.20
2023-03-24T17:41:49.159Z,9.10
2023-03-24T17:44:16.417Z,8.90
2023-03-24T17:46:43.824Z,8.90
2023-03-24T17:49:10.982Z,8.90
2023-03-24T17:51:38.063Z,9.00
2023-03-24T17:54:05.670Z,8.80
2023-03-24T17:56:32.719Z,8.90
2023-03-24T17:58:59.852Z,8.70
2023-03-24T18:01:29.870Z,8.60
2023-03-24T18:03:57.599Z,8.50
2023-03-24T18:06:25.037Z,8.40
2023-03-24T18:08:52.368Z,8.40
2023-03-24T18:11:19.557Z,8.30
2023-03-24T18:13:46.570Z,8.40
2023-03-24T18:16:21.363Z,8.30
2023-03-24T18:18:50.756Z,8.20
2023-03-24T18:21:18.883Z,8.20
2023-03-24T18:23:46.932Z,8.20
2023-03-24T18:26:15.951Z,8.20
2023-03-24T18:28:45.660Z,8.10
2023-03-24T18:31:15.967Z,8.10
2023-03-24T18:33:46.100Z,8.10
2023-03-24T18:36:22.156Z,8.10
2023-03-24T18:38:49.324Z,8.10
2023-03-24T18:41:18.400Z,8.10
2023-03-24T18:43:48.213Z,8.00
2023-03-24T18:46:16.288Z,8.00
2023-03-24T18:48:43.750Z,8.00
2023-03-24T18:51:11.598Z,7.90
2023-03-24T18:53:38.904Z,8.00
2023-03-24T18:56:07.206Z,7.90
2023-03-24T18:58:35.063Z,8.00
2023-03-24T19:01:09.440Z,7.90
2023-03-24T19:03:39.116Z,7.90
2023-03-24T19:06:07.804Z,7.90
2023-03-24T19:08:38.259Z,7.80
2023-03-24T19:11:05.619Z,7.80
2023-03-24T19:13:32.838Z,7.80
2023-03-24T19:16:00.370Z,7.90
2023-03-24T19:18:27.521Z,7.90
2023-03-24T19:20:56.250Z,7.90
2023-03-24T19:23:26.770Z,7.80
2023-03-24T19:25:57.122Z,7.90
2023-03-24T19:28:29.623Z,7.80
2023-03-24T19:30:58.047Z,7.80
2023-03-24T19:33:25.914Z,7.80
2023-03-24T19:35:53.444Z,7.80
2023-03-24T19:38:24.302Z,7.80
2023-03-24T19:40:54.466Z,7.80
2023-03-24T19:43:25.780Z,7.80
2023-03-24T19:45:56.352Z,7.70
2023-03-24T19:48:23.659Z,7.70
2023-03-24T19:50:53.197Z,7.70
2023-03-24T19:53:22.166Z,7.70
2023-03-24T19:55:50.244Z,7.70
2023-03-24T19:58:18.055Z,7.60
2023-03-24T20:00:45.111Z,7.60
2023-03-24T20:03:12.212Z,7.60
2023-03-24T20:05:42.445Z,7.60
2023-03-24T20:08:09.481Z,7.50
2023-03-24T20:10:38.747Z,7.50
2023-03-24T20:13:06.705Z,7.50
2023-03-24T20:15:33.866Z,7.50
2023-03-24T20:18:00.908Z,7.40
2023-03-24T20:20:28.131Z,7.40
2023-03-24T20:22:55.762Z,7.40
2023-03-24T20:25:23.803Z,7.30
2023-03-24T20:27:50.872Z,7.30
2023-03-24T20:30:20.331Z,7.30
2023-03-24T20:32:47.917Z,7.30
2023-03-24T20:35:15.176Z,7.30
2023-03-24T20:37:42.324Z,7.20
2023-03-24T20:40:10.041Z,7.20
2023-03-24T20:42:38.213Z,7.10
2023-03-24T20:45:07.196Z,7.00
2023-03-24T20:47:34.838Z,7.10
2023-03-24T20:50:02.666Z,7.10
2023-03-24T20:52:32.656Z,7.10
2023-03-24T20:55:01.546Z,7.00
2023-03-24T20:57:30.277Z,6.90
2023-03-24T20:59:57.886Z,7.00
2023-03-24T21:02:25.479Z,7.00
2023-03-24T21:04:52.591Z,7.00
2023-03-24T21:07:19.698Z,7.00
2023-03-24T21:09:46.753Z,6.90
2023-03-24T21:12:13.857Z,6.90
2023-03-24T21:14:41.962Z,6.90
2023-03-24T21:17:09.048Z,6.80
2023-03-24T21:19:37.384Z,6.90
2023-03-24T21:22:04.418Z,6.90
2023-03-24T21:24:31.670Z,6.90
2023-03-24T21:27:00.198Z,6.80
2023-03-24T21:29:27.300Z,6.90
2023-03-24T21:31:54.562Z,6.90
2023-03-24T21:34:21.643Z,6.90
2023-03-24T21:36:49.753Z,6.80
2023-03-24T21:39:17.280Z,6.70
2023-03-24T21:41:44.421Z,6.80
2023-03-24T21:44:11.505Z,6.80
2023-03-24T21:46:38.615Z,6.80
2023-03-24T21:49:06.383Z,6.80
2023-03-24T21:51:34.579Z,6.70
2023-03-24T21:54:06.675Z,6.70
2023-03-24T21:56:36.009Z,6.70
2023-03-24T21:59:03.130Z,6.70
2023-03-24T22:01:34.055Z,6.70
2023-03-24T22:04:01.255Z,6.60
2023-03-24T22:06:29.233Z,6.60
2023-03-24T22:08:58.640Z,6.60
2023-03-24T22:11:26.084Z,6.60
2023-03-24T22:13:53.901Z,6.60
2023-03-24T22:16:21.089Z,6.60
2023-03-24T22:18:48.077Z,6.60
2023-03-24T22:21:15.518Z,6.60
2023-03-24T22:23:43.021Z,6.60
2023-03-24T22:26:17.354Z,6.50
2023-03-24T22:28:44.720Z,6.50
2023-03-24T22:31:14.352Z,6.60
2023-03-24T22:33:41.848Z,6.50
2023-03-24T22:36:09.814Z,6.50
2023-03-24T22:38:36.941Z,6.60
2023-03-24T22:41:06.769Z,6.50
2023-03-24T22:43:35.655Z,6.50
2023-03-24T22:46:03.289Z,6.50
2023-03-24T22:48:30.499Z,6.50
2023-03-24T22:50:57.763Z,6.50
2023-03-24T22:53:25.035Z,6.50
2023-03-24T22:55:52.738Z,6.40
2023-03-24T22:58:20.139Z,6.40
2023-03-24T23:00:49.969Z,6.50
2023-03-24T23:03:17.055Z,6.40
2023-03-24T23:05:45.916Z,6.40
2023-03-24T23:08:15.405Z,6.30
2023-03-24T23:10:44.524Z,6.30
2023-03-24T23:13:12.497Z,6.30
2023-03-24T23:15:42.639Z,6.30
2023-03-24T23:18:10.528Z,6.20
2023-03-24T23:20:38.064Z,6.20
2023-03-24T23:23:07.087Z,6.20
2023-03-24T23:25:44.901Z,6.30
2023-03-24T23:28:12.916Z,6.20
2023-03-24T23:30:40.891Z,6.20
2023-03-24T23:33:08.440Z,6.20
2023-03-24T23:35:37.576Z,6.20
2023-03-24T23:38:05.529Z,6.20
2023-03-24T23:40:32.577Z,6.20
2023-03-24T23:43:00.007Z,6.20
2023-03-24T23:45:27.565Z,6.20
2023-03-24T23:47:54.966Z,6.20
2023-03-24T23:50:22.430Z,6.20
2023-03-24T23:52:49.584Z,6.10
2023-03-24T23:55:18.065Z,6.10
2023-03-24T23:57:46.747Z,6.10
